Time;durP1;ratioP1;P1;durP2;ratioP2;P2;SDS_P1;SDS_P2;PMS_P1;PMS_P2;Temp;Humidity;BMP_temperature;BMP_pressure;BME280_temperature;BME280_humidity;BME280_pressure;Samples;Min_cycle;Max_cycle;Signal;HPM_P1;HPM_P2
2023/06/05 00:00:21;;;;;;;14.98;8.35;;;;;;;;;;5054445;28;20496;-85
2023/06/05 00:02:48;;;;;;;18.13;7.78;;;;;;;;;;5061788;28;20045;-76
2023/06/05 00:05:15;;;;;;;15.13;8.05;;;;;;;;;;5070754;28;20040;-76
2023/06/05 00:07:41;;;;;;;11.30;6.72;;;;;;;;;;5042548;28;20033;-77
2023/06/05 00:10:08;;;;;;;11.48;6.38;;;;;;;;;;5057999;28;20497;-86
2023/06/05 00:12:35;;;;;;;13.80;7.78;;;;;;;;;;5063743;28;20075;-86
2023/06/05 00:15:01;;;;;;;11.30;6.45;;;;;;;;;;5038093;28;20076;-86
2023/06/05 00:17:28;;;;;;;14.10;7.90;;;;;;;;;;5061672;28;20615;-77
2023/06/05 00:19:54;;;;;;;13.20;7.40;;;;;;;;;;5070559;28;20123;-77
2023/06/05 00:22:20;;;;;;;11.85;6.97;;;;;;;;;;5062500;28;20097;-85
2023/06/05 00:24:46;;;;;;;14.85;8.00;;;;;;;;;;5060421;28;20037;-86
2023/06/05 00:27:12;;;;;;;13.75;7.82;;;;;;;;;;5047383;28;20051;-86
2023/06/05 00:29:38;;;;;;;15.13;7.10;;;;;;;;;;5063966;28;20048;-86
2023/06/05 00:32:05;;;;;;;11.60;7.45;;;;;;;;;;5038131;28;20516;-77
2023/06/05 00:34:31;;;;;;;11.93;7.43;;;;;;;;;;5072025;28;20094;-77
2023/06/05 00:36:57;;;;;;;12.82;7.25;;;;;;;;;;5067743;28;20047;-85
2023/06/05 00:39:24;;;;;;;14.32;7.88;;;;;;;;;;5043153;28;20409;-85
2023/06/05 00:41:50;;;;;;;13.55;7.97;;;;;;;;;;5053662;28;20052;-85
2023/06/05 00:44:18;;;;;;;14.35;8.20;;;;;;;;;;5070657;28;20051;-85
2023/06/05 00:46:45;;;;;;;15.25;7.85;;;;;;;;;;5070017;28;20101;-85
2023/06/05 00:49:11;;;;;;;13.93;7.70;;;;;;;;;;5062910;28;20510;-85
2023/06/05 00:51:38;;;;;;;14.23;8.40;;;;;;;;;;5070626;28;20052;-85
2023/06/05 00:54:05;;;;;;;12.98;7.82;;;;;;;;;;5050374;28;20048;-85
2023/06/05 00:56:35;;;;;;;17.80;8.73;;;;;;;;;;5042166;28;20044;-85
2023/06/05 00:59:01;;;;;;;15.32;8.30;;;;;;;;;;5064032;28;20329;-85
2023/06/05 01:01:32;;;;;;;12.77;7.00;;;;;;;;;;5071039;28;20498;-85
2023/06/05 01:03:58;;;;;;;12.68;7.20;;;;;;;;;;5070500;28;20052;-77
2023/06/05 01:06:27;;;;;;;11.45;7.22;;;;;;;;;;5052057;28;20175;-77
2023/06/05 01:08:56;;;;;;;11.10;6.88;;;;;;;;;;5060548;28;20049;-77
2023/06/05 01:11:23;;;;;;;16.35;8.80;;;;;;;;;;5070219;28;20045;-77
2023/06/05 01:14:00;;;;;;;13.63;7.82;;;;;;;;;;5065856;28;20166;-77
2023/06/05 01:16:30;;;;;;;12.98;7.53;;;;;;;;;;5060288;28;20041;-77
2023/06/05 01:19:02;;;;;;;16.15;8.65;;;;;;;;;;5051940;28;20097;-77
2023/06/05 01:21:28;;;;;;;11.90;7.18;;;;;;;;;;5068883;28;20082;-85
2023/06/05 01:23:54;;;;;;;15.07;8.57;;;;;;;;;;5070026;28;20086;-85
2023/06/05 01:26:23;;;;;;;15.95;8.18;;;;;;;;;;5053993;28;20144;-85
2023/06/05 01:28:50;;;;;;;14.23;7.57;;;;;;;;;;5066718;28;20032;-85
2023/06/05 01:31:19;;;;;;;18.05;9.27;;;;;;;;;;5056973;28;20090;-85
2023/06/05 01:33:51;;;;;;;14.68;8.32;;;;;;;;;;5070258;28;20055;-85
2023/06/05 01:36:18;;;;;;;14.85;7.93;;;;;;;;;;5070151;28;20044;-86
2023/06/05 01:38:46;;;;;;;12.93;7.85;;;;;;;;;;5069091;28;20040;-85
2023/06/05 01:41:13;;;;;;;19.55;9.30;;;;;;;;;;5060975;28;20083;-85
2023/06/05 01:43:39;;;;;;;15.07;8.35;;;;;;;;;;5052252;28;20090;-86
2023/06/05 01:46:08;;;;;;;15.65;9.30;;;;;;;;;;5070135;28;20051;-86
2023/06/05 01:48:35;;;;;;;15.65;8.63;;;;;;;;;;5052182;28;20044;-86
2023/06/05 01:51:01;;;;;;;20.30;9.40;;;;;;;;;;5055807;28;20106;-85
2023/06/05 01:53:28;;;;;;;16.48;9.15;;;;;;;;;;5065509;28;20044;-86
2023/06/05 01:55:57;;;;;;;13.13;7.72;;;;;;;;;;5069688;28;20044;-86
2023/06/05 01:58:24;;;;;;;13.48;8.75;;;;;;;;;;5054264;28;20107;-86
2023/06/05 02:00:52;;;;;;;17.35;9.38;;;;;;;;;;5048809;28;20037;-86
2023/06/05 02:03:18;;;;;;;18.75;9.23;;;;;;;;;;5057116;28;20044;-86
2023/06/05 02:05:44;;;;;;;15.02;9.23;;;;;;;;;;5068179;28;20039;-85
2023/06/05 02:08:12;;;;;;;15.30;8.90;;;;;;;;;;5054014;28;20068;-86
2023/06/05 02:10:42;;;;;;;15.13;8.15;;;;;;;;;;5037564;28;20087;-86
2023/06/05 02:13:09;;;;;;;14.35;8.45;;;;;;;;;;5066621;28;20040;-85
2023/06/05 02:15:35;;;;;;;16.58;9.43;;;;;;;;;;5066387;28;20084;-77
2023/06/05 02:18:02;;;;;;;12.55;7.75;;;;;;;;;;5054281;28;20036;-77
2023/06/05 02:20:29;;;;;;;14.35;8.65;;;;;;;;;;5067859;28;20089;-77
2023/06/05 02:22:55;;;;;;;16.00;8.70;;;;;;;;;;5065520;28;20049;-77
2023/06/05 02:25:25;;;;;;;12.65;7.90;;;;;;;;;;5071993;28;20113;-77
2023/06/05 02:27:51;;;;;;;15.10;8.45;;;;;;;;;;5060200;28;20040;-77
2023/06/05 02:30:18;;;;;;;13.85;7.75;;;;;;;;;;5073514;28;20049;-77
2023/06/05 02:32:44;;;;;;;15.40;8.77;;;;;;;;;;5053256;28;20076;-77
2023/06/05 02:35:14;;;;;;;15.55;8.55;;;;;;;;;;5053939;28;20037;-85
2023/06/05 02:37:44;;;;;;;15.13;8.27;;;;;;;;;;5064510;28;20094;-85
2023/06/05 02:40:14;;;;;;;14.95;9.38;;;;;;;;;;5072840;28;20401;-85
2023/06/05 02:42:40;;;;;;;16.33;9.65;;;;;;;;;;5067306;28;20083;-85
2023/06/05 02:45:07;;;;;;;15.57;8.27;;;;;;;;;;5060677;28;20107;-85
2023/06/05 02:47:34;;;;;;;15.93;8.73;;;;;;;;;;5072879;28;20051;-85
2023/06/05 02:50:00;;;;;;;15.02;9.30;;;;;;;;;;5055604;28;20055;-85
2023/06/05 02:52:27;;;;;;;17.95;9.43;;;;;;;;;;5071582;28;20090;-85
2023/06/05 02:54:54;;;;;;;17.13;8.20;;;;;;;;;;5064763;28;20393;-76
2023/06/05 02:57:20;;;;;;;16.52;8.85;;;;;;;;;;5071324;28;20036;-77
2023/06/05 02:59:47;;;;;;;16.67;8.57;;;;;;;;;;5072790;28;20052;-77
2023/06/05 03:02:13;;;;;;;13.77;8.20;;;;;;;;;;5071159;28;20126;-85
2023/06/05 03:04:40;;;;;;;16.77;8.82;;;;;;;;;;5071172;28;20037;-77
2023/06/05 03:07:08;;;;;;;13.68;7.97;;;;;;;;;;5067896;28;20056;-86
2023/06/05 03:09:34;;;;;;;14.27;8.90;;;;;;;;;;5055942;28;20045;-86
2023/06/05 03:12:00;;;;;;;14.95;8.70;;;;;;;;;;5055217;28;20048;-85
2023/06/05 03:14:27;;;;;;;13.25;8.00;;;;;;;;;;5070818;28;20409;-85
2023/06/05 03:16:53;;;;;;;15.07;8.27;;;;;;;;;;5044741;28;20400;-86
2023/06/05 03:19:19;;;;;;;17.60;8.57;;;;;;;;;;5071559;28;20044;-86
2023/06/05 03:21:47;;;;;;;16.90;8.93;;;;;;;;;;5056023;28;20493;-85
2023/06/05 03:24:14;;;;;;;18.75;9.75;;;;;;;;;;5060144;28;20049;-86
2023/06/05 03:26:44;;;;;;;13.57;8.00;;;;;;;;;;5065322;28;20041;-86
2023/06/05 03:29:11;;;;;;;14.85;9.10;;;;;;;;;;5071328;28;20040;-86
2023/06/05 03:31:37;;;;;;;14.77;7.78;;;;;;;;;;5069697;28;20044;-85
2023/06/05 03:34:03;;;;;;;14.77;8.65;;;;;;;;;;5055342;28;20045;-86
2023/06/05 03:36:30;;;;;;;13.52;8.23;;;;;;;;;;5063551;28;20041;-86
2023/06/05 03:38:56;;;;;;;15.35;8.98;;;;;;;;;;5072124;28;20393;-85
2023/06/05 03:41:23;;;;;;;17.63;9.27;;;;;;;;;;5071501;28;20519;-86
2023/06/05 03:44:12;;;;;;;15.55;9.48;;;;;;;;;;5054219;28;20049;-85
2023/06/05 03:46:47;;;;;;;15.30;9.15;;;;;;;;;;5051034;28;20111;-85
2023/06/05 03:49:18;;;;;;;17.08;9.77;;;;;;;;;;5047795;28;20511;-86
2023/06/05 03:51:45;;;;;;;19.73;9.00;;;;;;;;;;5072256;28;20048;-85
2023/06/05 03:54:12;;;;;;;14.98;8.90;;;;;;;;;;5071008;28;20044;-85
2023/06/05 03:56:42;;;;;;;13.57;8.63;;;;;;;;;;5059725;28;20056;-86
2023/06/05 03:59:09;;;;;;;13.82;8.52;;;;;;;;;;5065104;28;20049;-85
2023/06/05 04:01:37;;;;;;;14.25;8.52;;;;;;;;;;5061918;28;20048;-85
2023/06/05 04:04:07;;;;;;;14.02;9.07;;;;;;;;;;5039418;28;20083;-85
2023/06/05 04:06:34;;;;;;;17.50;9.10;;;;;;;;;;5050038;28;20048;-85
2023/06/05 04:09:00;;;;;;;14.15;8.13;;;;;;;;;;5051336;28;20456;-85
2023/06/05 04:11:27;;;;;;;16.90;9.82;;;;;;;;;;5056140;28;20036;-85
2023/06/05 04:13:56;;;;;;;13.55;8.40;;;;;;;;;;5071393;28;20124;-85
2023/06/05 04:16:22;;;;;;;18.95;9.95;;;;;;;;;;5062107;28;20044;-85
2023/06/05 04:18:48;;;;;;;16.58;9.70;;;;;;;;;;5064564;28;20551;-85
2023/06/05 04:21:14;;;;;;;16.33;9.52;;;;;;;;;;5050272;28;20093;-85
2023/06/05 04:23:40;;;;;;;14.27;8.85;;;;;;;;;;5070987;28;20040;-85
2023/06/05 04:26:07;;;;;;;16.25;9.98;;;;;;;;;;5070307;28;20555;-85
2023/06/05 04:28:34;;;;;;;13.52;8.40;;;;;;;;;;5070227;28;20044;-85
2023/06/05 04:31:01;;;;;;;16.30;9.02;;;;;;;;;;5062224;28;20040;-85
2023/06/05 04:33:27;;;;;;;13.52;8.77;;;;;;;;;;5070821;28;20055;-85
2023/06/05 04:35:54;;;;;;;14.93;9.50;;;;;;;;;;5035769;28;20405;-85
2023/06/05 04:38:21;;;;;;;14.75;8.82;;;;;;;;;;5051200;28;20049;-85
2023/06/05 04:40:50;;;;;;;17.45;10.30;;;;;;;;;;5064959;28;20055;-85
2023/06/05 04:43:16;;;;;;;15.02;9.00;;;;;;;;;;5070202;28;20045;-85
2023/06/05 04:45:42;;;;;;;15.70;9.50;;;;;;;;;;5065404;28;20093;-85
2023/06/05 04:48:09;;;;;;;13.20;8.98;;;;;;;;;;5070675;28;20127;-85
2023/06/05 04:50:35;;;;;;;17.33;10.07;;;;;;;;;;5068237;28;20085;-85
2023/06/05 04:53:02;;;;;;;17.40;9.20;;;;;;;;;;5059172;28;20497;-85
2023/06/05 04:55:28;;;;;;;17.20;8.65;;;;;;;;;;5066630;28;20032;-85
2023/06/05 04:57:54;;;;;;;18.05;9.40;;;;;;;;;;5037468;28;20068;-85
2023/06/05 05:00:20;;;;;;;13.15;9.13;;;;;;;;;;5068254;28;20087;-85
2023/06/05 05:02:46;;;;;;;14.48;9.02;;;;;;;;;;5046921;28;20043;-85
2023/06/05 05:05:13;;;;;;;12.75;9.00;;;;;;;;;;5053312;28;20040;-85
2023/06/05 05:07:42;;;;;;;12.50;8.23;;;;;;;;;;5054111;28;20438;-85
2023/06/05 05:10:09;;;;;;;17.23;8.93;;;;;;;;;;5053837;28;20048;-85
2023/06/05 05:12:36;;;;;;;14.35;7.80;;;;;;;;;;5054608;28;20079;-85
2023/06/05 05:15:03;;;;;;;12.45;7.55;;;;;;;;;;5067345;28;20476;-85
2023/06/05 05:17:30;;;;;;;12.48;7.97;;;;;;;;;;5065096;28;20040;-85
2023/06/05 05:19:56;;;;;;;12.73;6.93;;;;;;;;;;5039989;28;20033;-85
2023/06/05 05:22:22;;;;;;;13.18;7.40;;;;;;;;;;5044187;28;20516;-85
2023/06/05 05:24:48;;;;;;;10.07;6.70;;;;;;;;;;5069191;28;20385;-85
2023/06/05 05:27:14;;;;;;;11.35;6.70;;;;;;;;;;5070762;28;20044;-85
2023/06/05 05:29:40;;;;;;;10.65;6.35;;;;;;;;;;5055174;28;20040;-85
2023/06/05 05:32:06;;;;;;;12.38;6.72;;;;;;;;;;5069047;28;20402;-85
2023/06/05 05:34:33;;;;;;;8.18;6.10;;;;;;;;;;5065442;28;20135;-85
2023/06/05 05:37:01;;;;;;;9.25;6.10;;;;;;;;;;5070926;28;20414;-85
2023/06/05 05:39:27;;;;;;;9.93;5.78;;;;;;;;;;5057255;28;20052;-85
2023/06/05 05:41:53;;;;;;;7.80;5.18;;;;;;;;;;5074524;28;20048;-85
2023/06/05 05:44:19;;;;;;;8.95;6.03;;;;;;;;;;5061102;28;20048;-85
2023/06/05 05:46:49;;;;;;;8.05;5.60;;;;;;;;;;5053768;28;20512;-85
2023/06/05 05:49:15;;;;;;;13.38;5.65;;;;;;;;;;5059587;28;20411;-85
2023/06/05 05:51:41;;;;;;;8.15;5.03;;;;;;;;;;5070610;28;20044;-85
2023/06/05 05:54:08;;;;;;;9.32;4.75;;;;;;;;;;5053800;28;20087;-85
2023/06/05 05:56:35;;;;;;;9.25;5.18;;;;;;;;;;5066508;28;20512;-85
2023/06/05 05:59:01;;;;;;;6.20;3.97;;;;;;;;;;5074845;28;20044;-85
2023/06/05 06:01:28;;;;;;;5.40;3.65;;;;;;;;;;5075512;28;20068;-85
2023/06/05 06:03:54;;;;;;;6.45;4.10;;;;;;;;;;5070429;28;20041;-85
2023/06/05 06:06:20;;;;;;;5.63;3.55;;;;;;;;;;5064351;28;20044;-86
2023/06/05 06:08:46;;;;;;;6.50;3.30;;;;;;;;;;5072870;28;20051;-86
2023/06/05 06:11:13;;;;;;;6.15;3.88;;;;;;;;;;5074611;28;20032;-85
2023/06/05 06:13:40;;;;;;;5.95;4.00;;;;;;;;;;5075494;28;20036;-86
2023/06/05 06:16:06;;;;;;;5.97;3.88;;;;;;;;;;5062036;28;20115;-85
2023/06/05 06:18:32;;;;;;;5.88;4.13;;;;;;;;;;5068786;28;20037;-86
2023/06/05 06:20:58;;;;;;;5.57;3.58;;;;;;;;;;5070798;28;20068;-86
2023/06/05 06:23:24;;;;;;;7.97;3.85;;;;;;;;;;5081522;28;20048;-85
2023/06/05 06:25:51;;;;;;;5.82;3.67;;;;;;;;;;5066809;28;20072;-85
2023/06/05 06:28:19;;;;;;;5.32;3.17;;;;;;;;;;5064947;28;20039;-86
2023/06/05 06:30:45;;;;;;;5.45;3.28;;;;;;;;;;5071160;28;20049;-86
2023/06/05 06:33:11;;;;;;;4.57;3.10;;;;;;;;;;5073106;28;20040;-85
2023/06/05 06:35:38;;;;;;;4.90;3.13;;;;;;;;;;5055387;28;20087;-86
2023/06/05 06:38:04;;;;;;;5.82;3.45;;;;;;;;;;5053401;28;20052;-85
2023/06/05 06:40:30;;;;;;;4.60;3.25;;;;;;;;;;5066912;28;20043;-85
2023/06/05 06:42:56;;;;;;;6.00;3.40;;;;;;;;;;5055623;28;20135;-86
2023/06/05 06:45:22;;;;;;;5.07;3.10;;;;;;;;;;5031382;28;20051;-86
2023/06/05 06:47:48;;;;;;;4.85;3.10;;;;;;;;;;5048970;28;20433;-85
2023/06/05 06:50:14;;;;;;;4.72;3.15;;;;;;;;;;5040455;28;20100;-85
2023/06/05 06:52:41;;;;;;;4.15;2.90;;;;;;;;;;5052523;28;20064;-86
2023/06/05 06:55:07;;;;;;;4.43;2.90;;;;;;;;;;5052391;28;20119;-86
2023/06/05 06:57:33;;;;;;;4.30;2.80;;;;;;;;;;5047334;28;20176;-86
2023/06/05 06:59:59;;;;;;;4.97;2.72;;;;;;;;;;5053104;28;20041;-78
2023/06/05 07:02:26;;;;;;;4.78;2.60;;;;;;;;;;5057248;28;20580;-77
2023/06/05 07:04:54;;;;;;;4.60;2.67;;;;;;;;;;5053144;28;20047;-78
2023/06/05 07:07:21;;;;;;;3.90;2.63;;;;;;;;;;5056091;28;20040;-77
2023/06/05 07:09:51;;;;;;;4.85;2.88;;;;;;;;;;5072239;28;20045;-78
2023/06/05 07:12:19;;;;;;;4.78;2.92;;;;;;;;;;5045403;28;20406;-78
2023/06/05 07:14:45;;;;;;;4.22;2.60;;;;;;;;;;5069044;28;20537;-78
2023/06/05 07:17:11;;;;;;;3.67;2.40;;;;;;;;;;5046466;28;20150;-78
2023/06/05 07:19:38;;;;;;;5.28;2.70;;;;;;;;;;5071350;28;20041;-77
2023/06/05 07:22:05;;;;;;;3.55;2.22;;;;;;;;;;5046362;28;20032;-79
2023/06/05 07:24:31;;;;;;;3.53;2.30;;;;;;;;;;5106378;28;20065;-78
2023/06/05 07:27:00;;;;;;;3.67;2.42;;;;;;;;;;5057553;28;20049;-78
2023/06/05 07:29:26;;;;;;;4.68;2.45;;;;;;;;;;5070096;28;20052;-79
2023/06/05 07:31:53;;;;;;;3.83;2.10;;;;;;;;;;5045457;28;20154;-78
2023/06/05 07:34:20;;;;;;;3.08;2.15;;;;;;;;;;5054836;28;20048;-79
2023/06/05 07:36:48;;;;;;;3.50;2.35;;;;;;;;;;5044872;28;20051;-79
2023/06/05 07:39:14;;;;;;;4.38;2.30;;;;;;;;;;5056917;28;20489;-79
2023/06/05 07:41:40;;;;;;;5.00;2.33;;;;;;;;;;5063902;28;20102;-78
2023/06/05 07:44:09;;;;;;;4.72;2.35;;;;;;;;;;5069086;28;20047;-78
2023/06/05 07:46:35;;;;;;;4.38;2.40;;;;;;;;;;5074027;28;20050;-79
2023/06/05 07:49:01;;;;;;;3.22;2.15;;;;;;;;;;5062079;28;20044;-79
2023/06/05 07:51:27;;;;;;;3.25;2.13;;;;;;;;;;5055444;28;20045;-79
2023/06/05 07:53:53;;;;;;;2.85;2.10;;;;;;;;;;5041454;28;20574;-78
2023/06/05 07:56:23;;;;;;;3.50;2.15;;;;;;;;;;5071691;28;20405;-79
2023/06/05 07:58:51;;;;;;;3.38;2.10;;;;;;;;;;5071673;28;20052;-79
2023/06/05 08:01:17;;;;;;;3.47;2.40;;;;;;;;;;5048822;28;20040;-78
2023/06/05 08:03:43;;;;;;;4.20;2.70;;;;;;;;;;5071202;28;20044;-79
2023/06/05 08:06:10;;;;;;;3.35;2.30;;;;;;;;;;5071414;28;20074;-79
2023/06/05 08:08:36;;;;;;;4.22;2.35;;;;;;;;;;5060034;28;20094;-79
2023/06/05 08:11:02;;;;;;;4.32;2.03;;;;;;;;;;5071515;28;20531;-79
2023/06/05 08:13:29;;;;;;;3.95;2.53;;;;;;;;;;5038577;28;20032;-78
2023/06/05 08:15:56;;;;;;;4.72;2.40;;;;;;;;;;5060600;28;20040;-78
2023/06/05 08:18:22;;;;;;;5.90;2.17;;;;;;;;;;5048542;28;20045;-79
2023/06/05 08:20:48;;;;;;;3.20;2.15;;;;;;;;;;5070744;28;20040;-78
2023/06/05 08:23:16;;;;;;;5.80;2.40;;;;;;;;;;5054637;28;20040;-79
2023/06/05 08:25:43;;;;;;;4.93;2.30;;;;;;;;;;5070822;28;20074;-79
2023/06/05 08:28:09;;;;;;;4.72;2.30;;;;;;;;;;5067713;28;20043;-78
2023/06/05 08:30:35;;;;;;;3.95;2.63;;;;;;;;;;5040389;28;20147;-79
2023/06/05 08:33:01;;;;;;;3.42;2.50;;;;;;;;;;5020563;28;20079;-79
2023/06/05 08:35:27;;;;;;;3.60;2.20;;;;;;;;;;5071288;28;20546;-79
2023/06/05 08:37:53;;;;;;;5.18;2.40;;;;;;;;;;5069698;28;20052;-78
2023/06/05 08:40:20;;;;;;;2.88;2.28;;;;;;;;;;5065159;28;20033;-79
2023/06/05 08:42:46;;;;;;;4.97;2.28;;;;;;;;;;5061964;28;20127;-78
2023/06/05 08:45:12;;;;;;;4.95;2.30;;;;;;;;;;5070768;28;20040;-78
2023/06/05 08:47:41;;;;;;;4.63;2.35;;;;;;;;;;5054642;28;20040;-78
2023/06/05 08:50:08;;;;;;;4.88;2.53;;;;;;;;;;5058226;28;20052;-78
2023/06/05 08:52:35;;;;;;;8.32;2.60;;;;;;;;;;5046454;28;20052;-78
2023/06/05 08:55:03;;;;;;;3.78;2.35;;;;;;;;;;5064821;28;20052;-79
2023/06/05 08:57:29;;;;;;;4.22;2.58;;;;;;;;;;5070785;28;20044;-79
2023/06/05 08:59:56;;;;;;;4.55;2.47;;;;;;;;;;5041974;28;20052;-79
2023/06/05 09:02:22;;;;;;;3.22;2.25;;;;;;;;;;5069461;28;20036;-77
2023/06/05 09:04:49;;;;;;;3.95;2.28;;;;;;;;;;5070838;28;20520;-78
2023/06/05 09:07:16;;;;;;;4.20;2.67;;;;;;;;;;5054200;28;20451;-78
2023/06/05 09:09:43;;;;;;;4.35;2.63;;;;;;;;;;5064200;28;20123;-79
2023/06/05 09:12:09;;;;;;;4.25;2.53;;;;;;;;;;5070429;28;20055;-79
2023/06/05 09:14:35;;;;;;;3.80;2.70;;;;;;;;;;5057926;28;20053;-79
2023/06/05 09:17:02;;;;;;;4.90;2.72;;;;;;;;;;5053628;28;20051;-79
2023/06/05 09:19:43;;;;;;;3.83;2.65;;;;;;;;;;5065288;28;20116;-79
2023/06/05 09:22:10;;;;;;;4.40;2.70;;;;;;;;;;5063900;28;20085;-79
2023/06/05 09:24:36;;;;;;;3.25;2.42;;;;;;;;;;5074886;28;20366;-79
2023/06/05 09:27:05;;;;;;;3.80;2.50;;;;;;;;;;5074471;28;20071;-79
2023/06/05 09:29:33;;;;;;;4.80;2.67;;;;;;;;;;5069557;28;20076;-79
2023/06/05 09:32:00;;;;;;;3.53;2.50;;;;;;;;;;5063700;28;20055;-79
2023/06/05 09:34:27;;;;;;;4.50;2.70;;;;;;;;;;5057951;28;20047;-79
2023/06/05 09:36:54;;;;;;;3.90;2.72;;;;;;;;;;5057098;28;20041;-79
2023/06/05 09:39:21;;;;;;;4.38;2.60;;;;;;;;;;5057964;28;20095;-79
2023/06/05 09:41:51;;;;;;;4.32;2.60;;;;;;;;;;5071526;28;20447;-79
2023/06/05 09:44:17;;;;;;;6.32;2.80;;;;;;;;;;5074284;28;20071;-79
2023/06/05 09:47:00;;;;;;;5.03;2.50;;;;;;;;;;5060106;28;20044;-79
2023/06/05 09:49:30;;;;;;;4.00;2.15;;;;;;;;;;5057431;28;20051;-78
2023/06/05 09:51:57;;;;;;;4.55;2.78;;;;;;;;;;5059518;28;20123;-79
2023/06/05 09:54:26;;;;;;;4.18;2.42;;;;;;;;;;5037919;28;20433;-79
2023/06/05 09:56:56;;;;;;;3.67;2.72;;;;;;;;;;5052115;28;20048;-79
2023/06/05 09:59:22;;;;;;;4.38;2.70;;;;;;;;;;5074176;28;20037;-79
2023/06/05 10:01:50;;;;;;;5.20;2.97;;;;;;;;;;5063783;28;20094;-79
2023/06/05 10:04:19;;;;;;;5.43;2.85;;;;;;;;;;5067003;28;20109;-78
2023/06/05 10:06:46;;;;;;;5.88;3.00;;;;;;;;;;5074941;28;20037;-79
2023/06/05 10:09:12;;;;;;;6.03;3.00;;;;;;;;;;5073925;28;20049;-79
2023/06/05 10:11:40;;;;;;;4.45;2.65;;;;;;;;;;5068844;28;20520;-78
2023/06/05 10:14:07;;;;;;;5.28;2.95;;;;;;;;;;5036992;28;20536;-79
2023/06/05 10:16:33;;;;;;;4.68;3.03;;;;;;;;;;5062473;28;20124;-79
2023/06/05 10:18:59;;;;;;;4.03;2.90;;;;;;;;;;5073325;28;20044;-79
2023/06/05 10:21:27;;;;;;;3.67;2.78;;;;;;;;;;5073382;28;20044;-79
2023/06/05 10:24:07;;;;;;;3.97;2.90;;;;;;;;;;5047242;28;20075;-79
2023/06/05 10:26:52;;;;;;;5.45;3.22;;;;;;;;;;5072788;28;20123;-79
2023/06/05 10:29:18;;;;;;;3.92;2.78;;;;;;;;;;5057092;28;20045;-78
2023/06/05 10:32:04;;;;;;;4.93;3.05;;;;;;;;;;5056763;28;20036;-79
2023/06/05 10:34:42;;;;;;;3.97;2.97;;;;;;;;;;5058389;28;20534;-79
2023/06/05 10:37:26;;;;;;;4.65;3.30;;;;;;;;;;5063581;28;20501;-78
2023/06/05 10:39:54;;;;;;;5.10;3.00;;;;;;;;;;5073220;28;20068;-79
2023/06/05 10:42:24;;;;;;;4.68;2.83;;;;;;;;;;5072856;28;20060;-78
2023/06/05 10:44:50;;;;;;;5.68;3.17;;;;;;;;;;5039650;28;20049;-86
2023/06/05 10:47:35;;;;;;;4.95;3.20;;;;;;;;;;5073129;28;20484;-85
2023/06/05 10:50:16;;;;;;;6.83;3.00;;;;;;;;;;5056222;28;20066;-86
2023/06/05 10:52:43;;;;;;;3.78;2.95;;;;;;;;;;5056094;28;20366;-86
2023/06/05 10:55:11;;;;;;;5.13;3.05;;;;;;;;;;5058101;28;20041;-86
2023/06/05 10:57:55;;;;;;;5.00;3.30;;;;;;;;;;5072859;28;20086;-86
2023/06/05 11:00:22;;;;;;;4.53;3.35;;;;;;;;;;5070929;28;20413;-86
2023/06/05 11:02:48;;;;;;;4.70;3.25;;;;;;;;;;5061006;28;20039;-86
2023/06/05 11:05:15;;;;;;;5.60;3.03;;;;;;;;;;5061007;28;20047;-78
2023/06/05 11:07:45;;;;;;;4.18;3.05;;;;;;;;;;5074038;28;20123;-78
2023/06/05 11:10:21;;;;;;;5.30;3.63;;;;;;;;;;5055736;28;20049;-78
2023/06/05 11:12:47;;;;;;;4.10;2.72;;;;;;;;;;5051388;28;20119;-78
2023/06/05 11:15:13;;;;;;;5.43;3.17;;;;;;;;;;5048726;28;20043;-79
2023/06/05 11:17:41;;;;;;;6.35;2.88;;;;;;;;;;5066979;28;20040;-78
2023/06/05 11:20:09;;;;;;;4.82;3.35;;;;;;;;;;5072170;28;20094;-78
2023/06/05 11:22:57;;;;;;;5.57;2.97;;;;;;;;;;5072329;28;20076;-79
2023/06/05 11:25:30;;;;;;;4.55;3.08;;;;;;;;;;5044939;28;20541;-78
2023/06/05 11:28:08;;;;;;;5.43;3.15;;;;;;;;;;5067632;28;20044;-79
2023/06/05 11:30:42;;;;;;;4.30;3.20;;;;;;;;;;5061529;28;20127;-77
2023/06/05 11:33:09;;;;;;;4.80;2.90;;;;;;;;;;5072844;28;20054;-78
2023/06/05 11:35:36;;;;;;;5.43;3.20;;;;;;;;;;5072079;28;20489;-78
2023/06/05 11:38:10;;;;;;;4.90;3.13;;;;;;;;;;5058381;28;20493;-78
2023/06/05 11:40:36;;;;;;;4.40;3.22;;;;;;;;;;5060801;28;20036;-78
2023/06/05 11:43:06;;;;;;;4.38;3.28;;;;;;;;;;5065144;28;20057;-78
2023/06/05 11:45:36;;;;;;;4.35;3.25;;;;;;;;;;5038417;28;20097;-78
2023/06/05 11:48:12;;;;;;;5.30;3.30;;;;;;;;;;5055208;28;20040;-86
2023/06/05 11:50:51;;;;;;;4.10;2.95;;;;;;;;;;5044208;28;20047;-86
2023/06/05 11:53:18;;;;;;;4.85;2.92;;;;;;;;;;5071355;28;20119;-86
2023/06/05 11:58:22;;;;;;;4.10;2.80;;;;;;;;;;5048889;28;20040;-85
2023/06/05 12:00:49;;;;;;;4.25;2.90;;;;;;;;;;5071543;28;20033;-86
2023/06/05 12:03:21;;;;;;;4.72;3.10;;;;;;;;;;5054597;28;20044;-78
2023/06/05 12:05:48;;;;;;;4.97;2.80;;;;;;;;;;5071524;28;20028;-78
2023/06/05 12:08:28;;;;;;;4.15;2.70;;;;;;;;;;5070180;28;20047;-77
2023/06/05 12:10:58;;;;;;;4.97;2.70;;;;;;;;;;5053996;28;20064;-78
2023/06/05 12:13:44;;;;;;;3.85;2.83;;;;;;;;;;5071138;28;20048;-78
2023/06/05 12:16:10;;;;;;;5.75;3.17;;;;;;;;;;5060345;28;20052;-78
2023/06/05 12:18:36;;;;;;;5.68;3.03;;;;;;;;;;5050853;28;20072;-78
2023/06/05 12:21:02;;;;;;;4.53;2.80;;;;;;;;;;5065553;28;20128;-77
2023/06/05 12:23:32;;;;;;;4.65;2.97;;;;;;;;;;5069919;28;20048;-77
2023/06/05 12:26:05;;;;;;;4.85;2.60;;;;;;;;;;5054174;28;20036;-78
2023/06/05 12:28:31;;;;;;;4.85;3.08;;;;;;;;;;5069866;28;20036;-85
2023/06/05 12:30:58;;;;;;;5.90;3.03;;;;;;;;;;5068381;28;20370;-86
2023/06/05 12:33:24;;;;;;;3.30;2.53;;;;;;;;;;5063890;28;20098;-86
2023/06/05 12:36:06;;;;;;;6.00;3.10;;;;;;;;;;5055630;28;20037;-86
2023/06/05 12:38:40;;;;;;;4.00;2.58;;;;;;;;;;5059297;28;20121;-86
2023/06/05 12:41:06;;;;;;;4.05;2.70;;;;;;;;;;5054943;28;20091;-85
2023/06/05 12:43:33;;;;;;;4.30;3.15;;;;;;;;;;5058497;28;20392;-86
2023/06/05 12:45:59;;;;;;;5.28;3.22;;;;;;;;;;5067045;28;20037;-86
2023/06/05 12:48:25;;;;;;;4.53;2.90;;;;;;;;;;5071380;28;20489;-86
2023/06/05 12:50:51;;;;;;;7.20;3.25;;;;;;;;;;5068624;28;20049;-86
2023/06/05 12:53:18;;;;;;;4.60;2.90;;;;;;;;;;5057734;28;20037;-85
2023/06/05 12:55:44;;;;;;;4.75;3.20;;;;;;;;;;5062467;28;20052;-86
2023/06/05 12:58:10;;;;;;;5.55;3.20;;;;;;;;;;5054008;28;20417;-86
2023/06/05 13:00:36;;;;;;;5.70;3.00;;;;;;;;;;5047418;28;20049;-86
2023/06/05 13:03:03;;;;;;;5.50;2.97;;;;;;;;;;5065563;28;20044;-86
2023/06/05 13:05:31;;;;;;;4.40;2.90;;;;;;;;;;5054021;28;20040;-87
2023/06/05 13:07:58;;;;;;;11.57;3.03;;;;;;;;;;5064159;28;20045;-86
2023/06/05 13:10:24;;;;;;;5.18;3.08;;;;;;;;;;5070205;28;20051;-86
2023/06/05 13:12:51;;;;;;;5.82;2.90;;;;;;;;;;5104827;28;20039;-86
2023/06/05 13:15:17;;;;;;;5.28;3.08;;;;;;;;;;5061240;28;20032;-85
2023/06/05 13:17:43;;;;;;;5.10;2.88;;;;;;;;;;5058608;28;20036;-86
2023/06/05 13:20:10;;;;;;;4.85;3.20;;;;;;;;;;5072555;28;20075;-86
2023/06/05 13:22:40;;;;;;;4.75;2.80;;;;;;;;;;5055228;28;20516;-87
2023/06/05 13:25:08;;;;;;;4.25;2.80;;;;;;;;;;5069391;28;20039;-86
2023/06/05 13:27:34;;;;;;;4.82;2.88;;;;;;;;;;5065247;28;20052;-86
2023/06/05 13:30:00;;;;;;;5.32;2.90;;;;;;;;;;5072166;28;20036;-86
2023/06/05 13:32:26;;;;;;;4.57;2.70;;;;;;;;;;5071707;28;20044;-86
2023/06/05 13:34:53;;;;;;;3.95;2.55;;;;;;;;;;5070078;28;20068;-87
2023/06/05 13:37:19;;;;;;;7.07;2.65;;;;;;;;;;5060014;28;20090;-86
2023/06/05 13:39:46;;;;;;;3.83;2.50;;;;;;;;;;5074637;28;20048;-86
2023/06/05 13:42:12;;;;;;;4.20;2.70;;;;;;;;;;5072455;28;20127;-86
2023/06/05 13:44:38;;;;;;;3.92;2.67;;;;;;;;;;5055982;28;20493;-85
2023/06/05 13:47:05;;;;;;;4.55;2.70;;;;;;;;;;5068679;28;20037;-86
2023/06/05 13:49:31;;;;;;;4.95;2.80;;;;;;;;;;5063925;28;20132;-86
2023/06/05 13:51:57;;;;;;;3.20;2.35;;;;;;;;;;5046847;28;20447;-85
2023/06/05 13:54:23;;;;;;;5.72;2.72;;;;;;;;;;5051714;28;20049;-85
2023/06/05 13:56:51;;;;;;;5.15;2.80;;;;;;;;;;5052202;28;20393;-85
2023/06/05 13:59:18;;;;;;;6.00;3.08;;;;;;;;;;5051944;28;20098;-84
2023/06/05 14:01:44;;;;;;;4.82;2.90;;;;;;;;;;5053701;28;20045;-85
2023/06/05 14:04:11;;;;;;;4.20;2.70;;;;;;;;;;5037608;28;20041;-85
2023/06/05 14:06:39;;;;;;;5.82;2.67;;;;;;;;;;5053720;28;20049;-85
2023/06/05 14:09:05;;;;;;;4.05;2.35;;;;;;;;;;5042119;28;20612;-85
2023/06/05 14:11:32;;;;;;;5.35;2.15;;;;;;;;;;5062851;28;20043;-85
2023/06/05 14:13:58;;;;;;;4.85;2.60;;;;;;;;;;5066189;28;20128;-85
2023/06/05 14:16:25;;;;;;;4.53;2.72;;;;;;;;;;5062818;28;20044;-85
2023/06/05 14:18:52;;;;;;;6.43;2.38;;;;;;;;;;5074164;28;20115;-85
2023/06/05 14:21:18;;;;;;;3.95;2.60;;;;;;;;;;5070884;28;20040;-87
2023/06/05 14:23:44;;;;;;;4.47;2.30;;;;;;;;;;5062871;28;20032;-76
2023/06/05 14:26:10;;;;;;;4.47;2.47;;;;;;;;;;5074567;28;20051;-76
2023/06/05 14:28:36;;;;;;;4.18;2.45;;;;;;;;;;5072806;28;20044;-79
2023/06/05 14:31:03;;;;;;;5.68;2.67;;;;;;;;;;5094226;28;20037;-76
2023/06/05 14:33:29;;;;;;;4.07;2.58;;;;;;;;;;5039352;28;20029;-77
2023/06/05 14:35:55;;;;;;;5.53;2.75;;;;;;;;;;5044543;28;20505;-77
2023/06/05 14:38:21;;;;;;;5.00;2.50;;;;;;;;;;5052934;28;20037;-77
2023/06/05 14:40:50;;;;;;;5.32;2.38;;;;;;;;;;5036551;28;20407;-77
2023/06/05 14:43:16;;;;;;;5.93;2.70;;;;;;;;;;5053941;28;20106;-77